Milo, Maine
Current Conditions -  °F | °C
As of 9:36 AM on Tuesday 27 Jan 2015 (Local Time) from KMLT Reporting Station
Heavy Snow Heavy Snow  
Wind Chill: -13°   Ceiling: 900
Heat Index:   Visibility: 0.25mi
Dew Point:   Wind: 17mph
Humidity: 80%   Direction: 20°NNE
Pressure: 29.93"   Gusts: 29mph
Location:  45.25°N, 68.98°W
Report Text: KMLT 271436Z AUTO 02015G25KT 1/4SM +SN VV009 M14/M17 A2993 RMK AO2 P0000 T11441172
Loading
Personal Weather Stations






























Interactive Weather Map New forecast layout! Learn more

10-Day Weather Forecast

Advertisements
Track Severe Weather on mobile